sensor_id;sensor_type;location;lat;lon;timestamp;P1;durP1;ratioP1;P2;durP2;ratioP2
908;SDS011;441;51.192;6.788;2023-05-10T00:02:00;9.90;;;9.70;;
908;SDS011;441;51.192;6.788;2023-05-10T00:04:26;9.57;;;9.37;;
908;SDS011;441;51.192;6.788;2023-05-10T00:06:53;9.80;;;9.60;;
908;SDS011;441;51.192;6.788;2023-05-10T00:09:20;10.67;;;10.40;;
908;SDS011;441;51.192;6.788;2023-05-10T00:11:47;9.80;;;9.60;;
908;SDS011;441;51.192;6.788;2023-05-10T00:14:16;10.20;;;10.00;;
908;SDS011;441;51.192;6.788;2023-05-10T00:16:43;9.90;;;9.70;;
908;SDS011;441;51.192;6.788;2023-05-10T00:19:10;10.37;;;10.07;;
908;SDS011;441;51.192;6.788;2023-05-10T00:21:37;10.27;;;9.97;;
908;SDS011;441;51.192;6.788;2023-05-10T00:24:04;10.13;;;9.83;;
908;SDS011;441;51.192;6.788;2023-05-10T00:26:31;9.97;;;9.77;;
908;SDS011;441;51.192;6.788;2023-05-10T00:28:58;10.30;;;9.90;;
908;SDS011;441;51.192;6.788;2023-05-10T00:31:26;9.90;;;9.70;;
908;SDS011;441;51.192;6.788;2023-05-10T00:33:54;10.17;;;9.97;;
908;SDS011;441;51.192;6.788;2023-05-10T00:36:21;9.90;;;9.60;;
908;SDS011;441;51.192;6.788;2023-05-10T00:38:48;9.90;;;9.60;;
908;SDS011;441;51.192;6.788;2023-05-10T00:41:15;10.50;;;10.20;;
908;SDS011;441;51.192;6.788;2023-05-10T00:43:41;10.27;;;10.07;;
908;SDS011;441;51.192;6.788;2023-05-10T00:46:08;10.30;;;10.00;;
908;SDS011;441;51.192;6.788;2023-05-10T00:48:37;9.80;;;9.60;;
908;SDS011;441;51.192;6.788;2023-05-10T00:51:04;10.50;;;10.20;;
908;SDS011;441;51.192;6.788;2023-05-10T00:53:32;10.00;;;9.80;;
908;SDS011;441;51.192;6.788;2023-05-10T00:56:00;9.73;;;9.53;;
908;SDS011;441;51.192;6.788;2023-05-10T00:58:28;9.93;;;9.63;;
908;SDS011;441;51.192;6.788;2023-05-10T01:00:56;9.53;;;9.33;;
908;SDS011;441;51.192;6.788;2023-05-10T01:03:24;10.57;;;10.27;;
908;SDS011;441;51.192;6.788;2023-05-10T01:05:52;10.73;;;10.43;;
908;SDS011;441;51.192;6.788;2023-05-10T01:08:19;9.73;;;9.53;;
908;SDS011;441;51.192;6.788;2023-05-10T01:10:47;9.97;;;9.67;;
908;SDS011;441;51.192;6.788;2023-05-10T01:13:14;10.13;;;9.93;;
908;SDS011;441;51.192;6.788;2023-05-10T01:15:55;10.77;;;10.47;;
908;SDS011;441;51.192;6.788;2023-05-10T01:18:22;10.20;;;10.00;;
908;SDS011;441;51.192;6.788;2023-05-10T01:23:44;10.40;;;10.20;;
908;SDS011;441;51.192;6.788;2023-05-10T01:26:28;10.20;;;10.00;;
908;SDS011;441;51.192;6.788;2023-05-10T01:29:24;9.70;;;9.50;;
908;SDS011;441;51.192;6.788;2023-05-10T01:32:17;10.00;;;9.80;;
908;SDS011;441;51.192;6.788;2023-05-10T01:34:54;13.93;;;13.43;;
908;SDS011;441;51.192;6.788;2023-05-10T01:37:28;10.60;;;10.30;;
908;SDS011;441;51.192;6.788;2023-05-10T01:40:00;10.20;;;10.00;;
908;SDS011;441;51.192;6.788;2023-05-10T01:42:36;9.90;;;9.70;;
908;SDS011;441;51.192;6.788;2023-05-10T01:45:11;10.73;;;10.43;;
908;SDS011;441;51.192;6.788;2023-05-10T01:47:46;9.97;;;9.77;;
908;SDS011;441;51.192;6.788;2023-05-10T01:50:19;10.27;;;10.07;;
908;SDS011;441;51.192;6.788;2023-05-10T01:52:53;10.00;;;9.70;;
908;SDS011;441;51.192;6.788;2023-05-10T01:55:23;10.43;;;10.20;;
908;SDS011;441;51.192;6.788;2023-05-10T01:57:53;10.67;;;10.37;;
908;SDS011;441;51.192;6.788;2023-05-10T02:00:26;10.30;;;10.10;;
908;SDS011;441;51.192;6.788;2023-05-10T02:02:56;10.00;;;9.70;;
908;SDS011;441;51.192;6.788;2023-05-10T02:05:24;9.67;;;9.47;;
908;SDS011;441;51.192;6.788;2023-05-10T02:07:52;10.07;;;9.77;;
908;SDS011;441;51.192;6.788;2023-05-10T02:10:20;10.00;;;9.80;;
908;SDS011;441;51.192;6.788;2023-05-10T02:12:47;9.87;;;9.67;;
908;SDS011;441;51.192;6.788;2023-05-10T02:15:17;10.30;;;10.00;;
908;SDS011;441;51.192;6.788;2023-05-10T02:17:47;10.47;;;10.13;;
908;SDS011;441;51.192;6.788;2023-05-10T02:20:16;10.30;;;10.00;;
908;SDS011;441;51.192;6.788;2023-05-10T02:22:45;9.93;;;9.73;;
908;SDS011;441;51.192;6.788;2023-05-10T02:25:15;10.60;;;10.30;;
908;SDS011;441;51.192;6.788;2023-05-10T02:27:43;10.80;;;10.50;;
908;SDS011;441;51.192;6.788;2023-05-10T02:30:12;10.20;;;10.00;;
908;SDS011;441;51.192;6.788;2023-05-10T02:32:40;10.57;;;10.27;;
908;SDS011;441;51.192;6.788;2023-05-10T02:35:08;10.50;;;10.20;;
908;SDS011;441;51.192;6.788;2023-05-10T02:37:38;10.40;;;10.10;;
908;SDS011;441;51.192;6.788;2023-05-10T02:40:06;10.20;;;9.90;;
908;SDS011;441;51.192;6.788;2023-05-10T02:42:35;11.00;;;10.70;;
908;SDS011;441;51.192;6.788;2023-05-10T02:45:05;9.73;;;9.53;;
908;SDS011;441;51.192;6.788;2023-05-10T02:47:36;10.20;;;9.90;;
908;SDS011;441;51.192;6.788;2023-05-10T02:50:04;9.73;;;9.43;;
908;SDS011;441;51.192;6.788;2023-05-10T02:52:36;9.60;;;9.40;;
908;SDS011;441;51.192;6.788;2023-05-10T02:55:07;9.90;;;9.70;;
908;SDS011;441;51.192;6.788;2023-05-10T02:57:38;10.90;;;10.60;;
908;SDS011;441;51.192;6.788;2023-05-10T03:00:09;10.33;;;10.03;;
908;SDS011;441;51.192;6.788;2023-05-10T03:02:37;10.60;;;10.30;;
908;SDS011;441;51.192;6.788;2023-05-10T03:05:04;10.67;;;10.37;;
908;SDS011;441;51.192;6.788;2023-05-10T03:07:32;10.80;;;10.50;;
908;SDS011;441;51.192;6.788;2023-05-10T03:10:01;11.33;;;11.03;;
908;SDS011;441;51.192;6.788;2023-05-10T03:12:31;11.07;;;10.77;;
908;SDS011;441;51.192;6.788;2023-05-10T03:15:10;10.40;;;10.10;;
908;SDS011;441;51.192;6.788;2023-05-10T03:17:45;11.23;;;10.93;;
908;SDS011;441;51.192;6.788;2023-05-10T03:20:16;11.30;;;11.00;;
908;SDS011;441;51.192;6.788;2023-05-10T03:22:50;11.27;;;10.97;;
908;SDS011;441;51.192;6.788;2023-05-10T03:25:22;12.00;;;11.70;;
908;SDS011;441;51.192;6.788;2023-05-10T03:27:50;10.90;;;10.60;;
908;SDS011;441;51.192;6.788;2023-05-10T03:30:18;11.50;;;11.20;;
908;SDS011;441;51.192;6.788;2023-05-10T03:32:46;11.10;;;10.80;;
908;SDS011;441;51.192;6.788;2023-05-10T03:35:13;11.50;;;11.20;;
908;SDS011;441;51.192;6.788;2023-05-10T03:37:40;11.70;;;11.40;;
908;SDS011;441;51.192;6.788;2023-05-10T03:40:07;12.17;;;11.80;;
908;SDS011;441;51.192;6.788;2023-05-10T03:42:36;11.80;;;11.50;;
908;SDS011;441;51.192;6.788;2023-05-10T03:45:03;12.00;;;11.70;;
908;SDS011;441;51.192;6.788;2023-05-10T03:47:31;11.60;;;11.30;;
908;SDS011;441;51.192;6.788;2023-05-10T03:49:57;11.70;;;11.20;;
908;SDS011;441;51.192;6.788;2023-05-10T03:52:24;11.90;;;11.50;;
908;SDS011;441;51.192;6.788;2023-05-10T03:54:51;11.60;;;11.30;;
908;SDS011;441;51.192;6.788;2023-05-10T03:57:18;11.07;;;10.77;;
908;SDS011;441;51.192;6.788;2023-05-10T03:59:46;11.80;;;11.50;;
908;SDS011;441;51.192;6.788;2023-05-10T04:02:13;11.40;;;11.10;;
908;SDS011;441;51.192;6.788;2023-05-10T04:04:40;12.13;;;11.73;;
908;SDS011;441;51.192;6.788;2023-05-10T04:07:07;12.00;;;11.70;;
908;SDS011;441;51.192;6.788;2023-05-10T04:09:35;11.87;;;11.57;;
908;SDS011;441;51.192;6.788;2023-05-10T04:12:02;12.03;;;11.73;;
908;SDS011;441;51.192;6.788;2023-05-10T04:14:29;13.33;;;13.03;;
908;SDS011;441;51.192;6.788;2023-05-10T04:16:57;13.00;;;12.60;;
908;SDS011;441;51.192;6.788;2023-05-10T04:19:28;11.77;;;11.47;;
908;SDS011;441;51.192;6.788;2023-05-10T04:21:55;12.87;;;12.50;;
908;SDS011;441;51.192;6.788;2023-05-10T04:24:22;12.63;;;12.23;;
908;SDS011;441;51.192;6.788;2023-05-10T04:26:49;12.77;;;12.47;;
908;SDS011;441;51.192;6.788;2023-05-10T04:29:16;13.13;;;12.73;;
908;SDS011;441;51.192;6.788;2023-05-10T04:31:43;12.93;;;12.60;;
908;SDS011;441;51.192;6.788;2023-05-10T04:34:11;13.30;;;12.90;;
908;SDS011;441;51.192;6.788;2023-05-10T04:36:38;13.50;;;13.10;;
908;SDS011;441;51.192;6.788;2023-05-10T04:39:05;11.63;;;11.33;;
908;SDS011;441;51.192;6.788;2023-05-10T04:41:32;12.20;;;11.90;;
908;SDS011;441;51.192;6.788;2023-05-10T04:43:59;13.43;;;13.03;;
908;SDS011;441;51.192;6.788;2023-05-10T04:46:26;12.00;;;11.70;;
908;SDS011;441;51.192;6.788;2023-05-10T04:48:53;12.23;;;11.83;;
908;SDS011;441;51.192;6.788;2023-05-10T04:51:21;11.23;;;10.93;;
908;SDS011;441;51.192;6.788;2023-05-10T04:53:48;12.07;;;11.77;;
908;SDS011;441;51.192;6.788;2023-05-10T04:56:15;12.27;;;11.97;;
908;SDS011;441;51.192;6.788;2023-05-10T04:58:42;11.73;;;11.43;;
908;SDS011;441;51.192;6.788;2023-05-10T05:01:09;12.20;;;11.80;;
908;SDS011;441;51.192;6.788;2023-05-10T05:03:36;12.67;;;12.17;;
908;SDS011;441;51.192;6.788;2023-05-10T05:06:03;12.40;;;12.00;;
908;SDS011;441;51.192;6.788;2023-05-10T05:08:32;12.60;;;12.30;;
908;SDS011;441;51.192;6.788;2023-05-10T05:10:59;14.23;;;13.37;;
908;SDS011;441;51.192;6.788;2023-05-10T05:13:25;13.37;;;12.87;;
908;SDS011;441;51.192;6.788;2023-05-10T05:15:52;13.97;;;13.50;;
908;SDS011;441;51.192;6.788;2023-05-10T05:18:19;14.43;;;13.93;;
908;SDS011;441;51.192;6.788;2023-05-10T05:20:46;13.43;;;13.03;;
908;SDS011;441;51.192;6.788;2023-05-10T05:23:13;13.47;;;12.97;;
908;SDS011;441;51.192;6.788;2023-05-10T05:25:41;13.67;;;13.17;;
908;SDS011;441;51.192;6.788;2023-05-10T05:28:08;14.90;;;14.30;;
908;SDS011;441;51.192;6.788;2023-05-10T05:30:35;13.63;;;13.13;;
908;SDS011;441;51.192;6.788;2023-05-10T05:33:02;14.73;;;14.23;;
908;SDS011;441;51.192;6.788;2023-05-10T05:35:29;14.27;;;13.77;;
908;SDS011;441;51.192;6.788;2023-05-10T05:37:56;14.43;;;13.93;;
908;SDS011;441;51.192;6.788;2023-05-10T05:40:23;14.33;;;13.73;;
908;SDS011;441;51.192;6.788;2023-05-10T05:42:51;13.87;;;13.00;;
908;SDS011;441;51.192;6.788;2023-05-10T05:45:18;14.33;;;13.93;;
908;SDS011;441;51.192;6.788;2023-05-10T05:47:45;14.50;;;13.97;;
908;SDS011;441;51.192;6.788;2023-05-10T05:50:12;14.57;;;14.10;;
908;SDS011;441;51.192;6.788;2023-05-10T05:52:39;15.10;;;14.53;;
908;SDS011;441;51.192;6.788;2023-05-10T05:55:06;14.33;;;13.83;;
908;SDS011;441;51.192;6.788;2023-05-10T05:57:33;14.10;;;13.60;;
908;SDS011;441;51.192;6.788;2023-05-10T06:00:02;13.43;;;13.03;;
908;SDS011;441;51.192;6.788;2023-05-10T06:02:29;14.30;;;13.67;;
908;SDS011;441;51.192;6.788;2023-05-10T06:04:57;14.23;;;13.73;;
908;SDS011;441;51.192;6.788;2023-05-10T06:07:24;14.60;;;14.20;;
908;SDS011;441;51.192;6.788;2023-05-10T06:09:51;14.90;;;14.40;;
908;SDS011;441;51.192;6.788;2023-05-10T06:12:18;14.90;;;14.30;;
908;SDS011;441;51.192;6.788;2023-05-10T06:14:45;13.82;;;13.23;;
908;SDS011;441;51.192;6.788;2023-05-10T06:17:13;14.90;;;14.43;;
908;SDS011;441;51.192;6.788;2023-05-10T06:19:40;15.37;;;14.87;;
908;SDS011;441;51.192;6.788;2023-05-10T06:22:07;15.30;;;14.80;;
908;SDS011;441;51.192;6.788;2023-05-10T06:24:34;14.63;;;14.07;;
908;SDS011;441;51.192;6.788;2023-05-10T06:27:01;14.20;;;13.80;;
908;SDS011;441;51.192;6.788;2023-05-10T06:29:29;13.90;;;13.37;;
908;SDS011;441;51.192;6.788;2023-05-10T06:31:56;13.60;;;13.10;;
908;SDS011;441;51.192;6.788;2023-05-10T06:34:25;16.53;;;15.70;;
908;SDS011;441;51.192;6.788;2023-05-10T06:36:52;14.83;;;14.33;;
908;SDS011;441;51.192;6.788;2023-05-10T06:39:18;13.20;;;12.80;;
908;SDS011;441;51.192;6.788;2023-05-10T06:41:46;13.90;;;13.43;;
908;SDS011;441;51.192;6.788;2023-05-10T06:44:12;15.20;;;14.60;;
908;SDS011;441;51.192;6.788;2023-05-10T06:46:39;14.80;;;14.40;;
908;SDS011;441;51.192;6.788;2023-05-10T06:49:06;15.17;;;14.57;;
908;SDS011;441;51.192;6.788;2023-05-10T06:51:35;14.07;;;13.63;;
908;SDS011;441;51.192;6.788;2023-05-10T06:54:02;14.43;;;13.93;;
908;SDS011;441;51.192;6.788;2023-05-10T06:56:29;14.93;;;14.43;;
908;SDS011;441;51.192;6.788;2023-05-10T06:58:56;15.03;;;14.50;;
908;SDS011;441;51.192;6.788;2023-05-10T07:01:24;14.43;;;14.03;;
908;SDS011;441;51.192;6.788;2023-05-10T07:03:51;15.50;;;15.00;;
908;SDS011;441;51.192;6.788;2023-05-10T07:06:17;15.23;;;14.63;;
908;SDS011;441;51.192;6.788;2023-05-10T07:08:46;14.07;;;13.57;;
908;SDS011;441;51.192;6.788;2023-05-10T07:11:13;14.70;;;14.23;;
908;SDS011;441;51.192;6.788;2023-05-10T07:13:40;13.97;;;13.50;;
908;SDS011;441;51.192;6.788;2023-05-10T07:16:09;13.97;;;13.53;;
908;SDS011;441;51.192;6.788;2023-05-10T07:18:36;14.33;;;13.83;;
908;SDS011;441;51.192;6.788;2023-05-10T07:21:03;12.70;;;12.20;;
908;SDS011;441;51.192;6.788;2023-05-10T07:23:30;15.97;;;15.40;;
908;SDS011;441;51.192;6.788;2023-05-10T07:25:58;15.10;;;14.60;;
908;SDS011;441;51.192;6.788;2023-05-10T07:28:25;17.03;;;16.53;;
908;SDS011;441;51.192;6.788;2023-05-10T07:30:52;15.20;;;14.70;;
908;SDS011;441;51.192;6.788;2023-05-10T07:33:19;16.07;;;15.57;;
908;SDS011;441;51.192;6.788;2023-05-10T07:35:46;15.17;;;14.70;;
908;SDS011;441;51.192;6.788;2023-05-10T07:38:13;14.80;;;14.40;;
908;SDS011;441;51.192;6.788;2023-05-10T07:40:39;15.83;;;15.20;;
908;SDS011;441;51.192;6.788;2023-05-10T07:43:08;15.60;;;15.10;;
908;SDS011;441;51.192;6.788;2023-05-10T07:45:35;14.80;;;14.30;;
908;SDS011;441;51.192;6.788;2023-05-10T07:48:02;15.40;;;14.80;;
908;SDS011;441;51.192;6.788;2023-05-10T07:50:29;15.17;;;14.67;;
908;SDS011;441;51.192;6.788;2023-05-10T07:52:56;14.37;;;13.97;;
908;SDS011;441;51.192;6.788;2023-05-10T07:55:23;15.83;;;15.33;;
908;SDS011;441;51.192;6.788;2023-05-10T07:57:50;15.37;;;14.87;;
908;SDS011;441;51.192;6.788;2023-05-10T08:00:18;15.73;;;15.13;;
908;SDS011;441;51.192;6.788;2023-05-10T08:02:46;14.43;;;14.00;;
908;SDS011;441;51.192;6.788;2023-05-10T08:05:13;15.20;;;14.70;;
908;SDS011;441;51.192;6.788;2023-05-10T08:07:40;14.77;;;13.90;;
908;SDS011;441;51.192;6.788;2023-05-10T08:10:08;15.13;;;14.73;;
908;SDS011;441;51.192;6.788;2023-05-10T08:12:37;15.80;;;15.30;;
908;SDS011;441;51.192;6.788;2023-05-10T08:15:04;15.30;;;14.80;;
908;SDS011;441;51.192;6.788;2023-05-10T08:17:34;14.80;;;14.30;;
908;SDS011;441;51.192;6.788;2023-05-10T08:20:01;14.60;;;14.20;;
908;SDS011;441;51.192;6.788;2023-05-10T08:22:28;16.20;;;15.70;;
908;SDS011;441;51.192;6.788;2023-05-10T08:24:55;14.60;;;14.10;;
908;SDS011;441;51.192;6.788;2023-05-10T08:27:22;15.03;;;14.43;;
908;SDS011;441;51.192;6.788;2023-05-10T08:29:49;15.07;;;14.67;;
908;SDS011;441;51.192;6.788;2023-05-10T08:32:15;15.30;;;14.80;;
908;SDS011;441;51.192;6.788;2023-05-10T08:34:44;16.33;;;15.73;;
908;SDS011;441;51.192;6.788;2023-05-10T08:37:11;15.70;;;15.20;;
908;SDS011;441;51.192;6.788;2023-05-10T08:39:38;15.60;;;15.10;;
908;SDS011;441;51.192;6.788;2023-05-10T08:42:05;15.90;;;15.30;;
908;SDS011;441;51.192;6.788;2023-05-10T08:44:34;17.07;;;16.43;;
908;SDS011;441;51.192;6.788;2023-05-10T08:47:02;16.13;;;15.53;;
908;SDS011;441;51.192;6.788;2023-05-10T08:49:32;15.37;;;14.87;;
908;SDS011;441;51.192;6.788;2023-05-10T08:52:01;15.23;;;14.73;;
908;SDS011;441;51.192;6.788;2023-05-10T08:54:31;15.67;;;15.07;;
908;SDS011;441;51.192;6.788;2023-05-10T08:56:58;15.00;;;14.50;;
908;SDS011;441;51.192;6.788;2023-05-10T08:59:26;15.90;;;15.30;;
908;SDS011;441;51.192;6.788;2023-05-10T09:01:53;14.20;;;13.80;;
908;SDS011;441;51.192;6.788;2023-05-10T09:04:23;15.53;;;14.83;;
908;SDS011;441;51.192;6.788;2023-05-10T09:06:51;15.83;;;15.23;;
908;SDS011;441;51.192;6.788;2023-05-10T09:09:20;16.03;;;15.43;;
908;SDS011;441;51.192;6.788;2023-05-10T09:11:47;14.77;;;14.17;;
908;SDS011;441;51.192;6.788;2023-05-10T09:14:14;16.27;;;15.67;;
908;SDS011;441;51.192;6.788;2023-05-10T09:16:42;16.50;;;15.80;;
908;SDS011;441;51.192;6.788;2023-05-10T09:19:09;15.47;;;14.90;;
908;SDS011;441;51.192;6.788;2023-05-10T09:21:36;17.10;;;16.40;;
908;SDS011;441;51.192;6.788;2023-05-10T09:24:04;16.67;;;16.10;;
908;SDS011;441;51.192;6.788;2023-05-10T09:26:33;16.47;;;15.83;;
908;SDS011;441;51.192;6.788;2023-05-10T09:29:01;16.03;;;15.43;;
908;SDS011;441;51.192;6.788;2023-05-10T09:31:44;15.90;;;15.30;;
908;SDS011;441;51.192;6.788;2023-05-10T09:34:16;15.67;;;15.07;;
908;SDS011;441;51.192;6.788;2023-05-10T09:36:54;16.80;;;16.00;;
908;SDS011;441;51.192;6.788;2023-05-10T09:39:29;15.97;;;15.37;;
908;SDS011;441;51.192;6.788;2023-05-10T09:41:59;16.50;;;15.77;;
908;SDS011;441;51.192;6.788;2023-05-10T09:44:31;16.17;;;15.57;;
908;SDS011;441;51.192;6.788;2023-05-10T09:46:59;17.00;;;16.20;;
908;SDS011;441;51.192;6.788;2023-05-10T09:49:26;16.10;;;15.50;;
908;SDS011;441;51.192;6.788;2023-05-10T09:52:00;16.17;;;15.60;;
908;SDS011;441;51.192;6.788;2023-05-10T09:54:28;15.87;;;15.27;;
908;SDS011;441;51.192;6.788;2023-05-10T09:56:55;16.00;;;15.40;;
908;SDS011;441;51.192;6.788;2023-05-10T09:59:25;16.83;;;16.03;;
908;SDS011;441;51.192;6.788;2023-05-10T10:01:53;16.97;;;16.37;;
908;SDS011;441;51.192;6.788;2023-05-10T10:04:22;16.30;;;15.73;;
908;SDS011;441;51.192;6.788;2023-05-10T10:06:58;15.87;;;15.27;;
908;SDS011;441;51.192;6.788;2023-05-10T10:09:26;17.27;;;16.60;;
908;SDS011;441;51.192;6.788;2023-05-10T10:11:54;16.00;;;15.40;;
908;SDS011;441;51.192;6.788;2023-05-10T10:14:21;16.33;;;15.73;;
908;SDS011;441;51.192;6.788;2023-05-10T10:16:50;18.30;;;17.50;;
908;SDS011;441;51.192;6.788;2023-05-10T10:19:18;18.00;;;17.40;;
908;SDS011;441;51.192;6.788;2023-05-10T10:21:45;17.17;;;16.47;;
908;SDS011;441;51.192;6.788;2023-05-10T10:24:12;17.70;;;16.90;;
908;SDS011;441;51.192;6.788;2023-05-10T10:26:39;16.13;;;15.53;;
908;SDS011;441;51.192;6.788;2023-05-10T10:29:11;15.45;;;14.80;;
908;SDS011;441;51.192;6.788;2023-05-10T10:31:47;17.20;;;16.50;;
908;SDS011;441;51.192;6.788;2023-05-10T10:34:25;17.07;;;16.47;;
908;SDS011;441;51.192;6.788;2023-05-10T10:36:54;17.23;;;16.33;;
908;SDS011;441;51.192;6.788;2023-05-10T10:39:22;17.17;;;16.47;;
908;SDS011;441;51.192;6.788;2023-05-10T10:53:52;18.60;;;17.87;;
908;SDS011;441;51.192;6.788;2023-05-10T10:56:21;16.97;;;16.37;;
908;SDS011;441;51.192;6.788;2023-05-10T10:58:49;16.70;;;16.10;;
908;SDS011;441;51.192;6.788;2023-05-10T11:01:18;17.20;;;16.60;;
908;SDS011;441;51.192;6.788;2023-05-10T11:06:43;17.37;;;16.50;;
908;SDS011;441;51.192;6.788;2023-05-10T11:09:11;16.70;;;16.10;;
908;SDS011;441;51.192;6.788;2023-05-10T11:11:48;17.53;;;16.83;;
908;SDS011;441;51.192;6.788;2023-05-10T11:14:15;16.80;;;16.20;;
908;SDS011;441;51.192;6.788;2023-05-10T11:16:46;16.30;;;15.70;;
908;SDS011;441;51.192;6.788;2023-05-10T11:19:13;15.97;;;15.37;;
908;SDS011;441;51.192;6.788;2023-05-10T11:21:45;15.57;;;15.03;;
908;SDS011;441;51.192;6.788;2023-05-10T11:24:15;16.03;;;15.47;;
908;SDS011;441;51.192;6.788;2023-05-10T11:26:43;17.07;;;16.47;;
908;SDS011;441;51.192;6.788;2023-05-10T11:29:11;16.20;;;15.60;;
908;SDS011;441;51.192;6.788;2023-05-10T11:31:42;16.80;;;16.20;;
908;SDS011;441;51.192;6.788;2023-05-10T11:34:10;17.60;;;16.90;;
908;SDS011;441;51.192;6.788;2023-05-10T11:36:37;16.00;;;15.40;;
908;SDS011;441;51.192;6.788;2023-05-10T11:39:05;15.87;;;15.27;;
908;SDS011;441;51.192;6.788;2023-05-10T11:41:33;16.87;;;16.27;;
908;SDS011;441;51.192;6.788;2023-05-10T11:44:00;16.53;;;15.90;;
908;SDS011;441;51.192;6.788;2023-05-10T11:46:28;16.80;;;16.20;;
908;SDS011;441;51.192;6.788;2023-05-10T11:48:56;17.10;;;16.40;;
908;SDS011;441;51.192;6.788;2023-05-10T11:51:25;16.48;;;15.88;;
908;SDS011;441;51.192;6.788;2023-05-10T11:53:53;14.63;;;14.02;;
908;SDS011;441;51.192;6.788;2023-05-10T11:56:21;16.23;;;15.63;;
908;SDS011;441;51.192;6.788;2023-05-10T11:58:53;17.00;;;16.30;;
908;SDS011;441;51.192;6.788;2023-05-10T12:01:21;14.70;;;14.10;;
908;SDS011;441;51.192;6.788;2023-05-10T12:03:49;16.50;;;15.90;;
908;SDS011;441;51.192;6.788;2023-05-10T12:06:18;16.67;;;16.07;;
908;SDS011;441;51.192;6.788;2023-05-10T12:08:46;16.30;;;15.60;;
908;SDS011;441;51.192;6.788;2023-05-10T12:11:17;16.97;;;16.37;;
908;SDS011;441;51.192;6.788;2023-05-10T12:13:45;17.00;;;16.40;;
908;SDS011;441;51.192;6.788;2023-05-10T12:16:15;16.60;;;15.90;;
908;SDS011;441;51.192;6.788;2023-05-10T12:18:44;16.53;;;15.73;;
908;SDS011;441;51.192;6.788;2023-05-10T12:21:11;16.00;;;15.40;;
908;SDS011;441;51.192;6.788;2023-05-10T12:23:39;16.53;;;15.93;;
908;SDS011;441;51.192;6.788;2023-05-10T12:26:08;17.47;;;16.63;;
908;SDS011;441;51.192;6.788;2023-05-10T12:28:36;16.10;;;15.60;;
908;SDS011;441;51.192;6.788;2023-05-10T12:31:04;16.70;;;16.13;;
908;SDS011;441;51.192;6.788;2023-05-10T12:33:38;15.87;;;15.27;;
908;SDS011;441;51.192;6.788;2023-05-10T12:36:07;16.27;;;15.67;;
908;SDS011;441;51.192;6.788;2023-05-10T12:38:35;15.20;;;14.63;;
908;SDS011;441;51.192;6.788;2023-05-10T12:41:06;16.37;;;15.77;;
908;SDS011;441;51.192;6.788;2023-05-10T12:43:34;16.03;;;15.53;;
908;SDS011;441;51.192;6.788;2023-05-10T12:46:05;16.47;;;15.87;;
908;SDS011;441;51.192;6.788;2023-05-10T12:48:33;16.83;;;16.13;;
908;SDS011;441;51.192;6.788;2023-05-10T12:51:02;16.33;;;15.73;;
908;SDS011;441;51.192;6.788;2023-05-10T12:53:30;15.23;;;14.70;;
908;SDS011;441;51.192;6.788;2023-05-10T12:55:57;16.30;;;15.70;;
908;SDS011;441;51.192;6.788;2023-05-10T12:58:24;16.97;;;16.40;;
908;SDS011;441;51.192;6.788;2023-05-10T13:00:51;16.43;;;15.83;;
908;SDS011;441;51.192;6.788;2023-05-10T13:03:18;16.27;;;15.67;;
908;SDS011;441;51.192;6.788;2023-05-10T13:05:45;16.80;;;16.10;;
908;SDS011;441;51.192;6.788;2023-05-10T13:08:14;17.00;;;16.30;;
908;SDS011;441;51.192;6.788;2023-05-10T13:10:41;16.13;;;15.53;;
908;SDS011;441;51.192;6.788;2023-05-10T13:13:08;16.47;;;15.87;;
908;SDS011;441;51.192;6.788;2023-05-10T13:15:35;16.03;;;15.50;;
908;SDS011;441;51.192;6.788;2023-05-10T13:18:02;16.70;;;16.10;;
908;SDS011;441;51.192;6.788;2023-05-10T13:20:29;17.07;;;16.47;;
908;SDS011;441;51.192;6.788;2023-05-10T13:22:56;17.00;;;16.40;;
908;SDS011;441;51.192;6.788;2023-05-10T13:25:25;15.07;;;14.53;;
908;SDS011;441;51.192;6.788;2023-05-10T13:27:52;17.03;;;16.33;;
908;SDS011;441;51.192;6.788;2023-05-10T13:30:19;16.10;;;15.50;;
908;SDS011;441;51.192;6.788;2023-05-10T13:32:46;17.10;;;16.50;;
908;SDS011;441;51.192;6.788;2023-05-10T13:35:12;16.73;;;16.13;;
908;SDS011;441;51.192;6.788;2023-05-10T13:37:39;16.70;;;16.10;;
908;SDS011;441;51.192;6.788;2023-05-10T13:40:07;15.93;;;15.33;;
908;SDS011;441;51.192;6.788;2023-05-10T13:42:35;15.70;;;15.10;;
908;SDS011;441;51.192;6.788;2023-05-10T13:45:03;17.27;;;16.67;;
908;SDS011;441;51.192;6.788;2023-05-10T13:47:30;16.27;;;15.70;;
908;SDS011;441;51.192;6.788;2023-05-10T13:49:57;16.90;;;16.30;;
908;SDS011;441;51.192;6.788;2023-05-10T13:52:24;17.07;;;16.43;;
908;SDS011;441;51.192;6.788;2023-05-10T13:54:52;16.53;;;15.93;;
908;SDS011;441;51.192;6.788;2023-05-10T13:57:21;15.80;;;15.20;;
908;SDS011;441;51.192;6.788;2023-05-10T13:59:50;15.60;;;15.10;;
908;SDS011;441;51.192;6.788;2023-05-10T14:02:17;15.87;;;15.33;;
908;SDS011;441;51.192;6.788;2023-05-10T14:04:45;15.40;;;14.87;;
908;SDS011;441;51.192;6.788;2023-05-10T14:07:12;14.87;;;14.37;;
908;SDS011;441;51.192;6.788;2023-05-10T14:09:39;16.33;;;15.73;;
908;SDS011;441;51.192;6.788;2023-05-10T14:12:06;15.37;;;14.87;;
908;SDS011;441;51.192;6.788;2023-05-10T14:14:33;15.73;;;15.23;;
908;SDS011;441;51.192;6.788;2023-05-10T14:17:01;15.40;;;14.90;;
908;SDS011;441;51.192;6.788;2023-05-10T14:19:28;16.63;;;15.73;;
908;SDS011;441;51.192;6.788;2023-05-10T14:21:57;16.10;;;15.40;;
908;SDS011;441;51.192;6.788;2023-05-10T14:24:24;16.43;;;15.83;;
908;SDS011;441;51.192;6.788;2023-05-10T14:26:51;18.93;;;17.90;;
908;SDS011;441;51.192;6.788;2023-05-10T14:29:19;15.97;;;15.47;;
908;SDS011;441;51.192;6.788;2023-05-10T14:31:46;16.37;;;15.77;;
908;SDS011;441;51.192;6.788;2023-05-10T14:34:14;16.57;;;15.97;;
908;SDS011;441;51.192;6.788;2023-05-10T14:36:41;15.40;;;14.90;;
908;SDS011;441;51.192;6.788;2023-05-10T14:39:08;16.67;;;16.07;;
908;SDS011;441;51.192;6.788;2023-05-10T14:41:37;15.80;;;15.20;;
908;SDS011;441;51.192;6.788;2023-05-10T14:44:06;16.77;;;16.07;;
908;SDS011;441;51.192;6.788;2023-05-10T14:46:32;16.27;;;15.73;;
908;SDS011;441;51.192;6.788;2023-05-10T14:49:00;17.03;;;16.33;;
908;SDS011;441;51.192;6.788;2023-05-10T14:51:28;15.43;;;14.93;;
908;SDS011;441;51.192;6.788;2023-05-10T14:53:57;17.20;;;16.57;;
908;SDS011;441;51.192;6.788;2023-05-10T14:56:24;16.53;;;15.93;;
908;SDS011;441;51.192;6.788;2023-05-10T14:58:52;17.60;;;16.80;;
908;SDS011;441;51.192;6.788;2023-05-10T15:01:19;16.90;;;16.30;;
908;SDS011;441;51.192;6.788;2023-05-10T15:03:46;17.23;;;16.63;;
908;SDS011;441;51.192;6.788;2023-05-10T15:06:14;16.40;;;15.80;;
908;SDS011;441;51.192;6.788;2023-05-10T15:08:42;16.60;;;15.93;;
908;SDS011;441;51.192;6.788;2023-05-10T15:11:09;17.43;;;16.63;;
908;SDS011;441;51.192;6.788;2023-05-10T15:13:36;17.00;;;16.40;;
908;SDS011;441;51.192;6.788;2023-05-10T15:16:03;21.88;;;20.98;;
908;SDS011;441;51.192;6.788;2023-05-10T15:18:30;23.00;;;22.20;;
908;SDS011;441;51.192;6.788;2023-05-10T15:20:57;24.80;;;23.80;;
908;SDS011;441;51.192;6.788;2023-05-10T15:23:24;23.20;;;22.30;;
908;SDS011;441;51.192;6.788;2023-05-10T15:25:53;24.80;;;23.80;;
908;SDS011;441;51.192;6.788;2023-05-10T15:28:20;24.17;;;23.10;;
908;SDS011;441;51.192;6.788;2023-05-10T15:30:47;23.20;;;22.30;;
908;SDS011;441;51.192;6.788;2023-05-10T15:33:14;22.40;;;21.30;;
908;SDS011;441;51.192;6.788;2023-05-10T15:35:41;24.13;;;23.00;;
908;SDS011;441;51.192;6.788;2023-05-10T15:38:08;25.67;;;24.50;;
908;SDS011;441;51.192;6.788;2023-05-10T15:40:36;24.10;;;23.20;;
908;SDS011;441;51.192;6.788;2023-05-10T15:43:04;24.50;;;23.50;;